sensor_id;sensor_type;location;lat;lon;timestamp;P1;durP1;ratioP1;P2;durP2;ratioP2
20711;SDS011;10517;50.742;4.224;2023-02-01T00:00:23;9.97;;;5.30;;
20711;SDS011;10517;50.742;4.224;2023-02-01T00:02:49;15.07;;;5.57;;
20711;SDS011;10517;50.742;4.224;2023-02-01T00:05:15;17.83;;;6.40;;
20711;SDS011;10517;50.742;4.224;2023-02-01T00:07:41;11.87;;;6.07;;
20711;SDS011;10517;50.742;4.224;2023-02-01T00:10:07;20.37;;;6.73;;
20711;SDS011;10517;50.742;4.224;2023-02-01T00:12:33;14.30;;;5.53;;
20711;SDS011;10517;50.742;4.224;2023-02-01T00:14:58;16.47;;;5.93;;
20711;SDS011;10517;50.742;4.224;2023-02-01T00:17:24;26.97;;;5.47;;
20711;SDS011;10517;50.742;4.224;2023-02-01T00:19:50;21.40;;;6.00;;
20711;SDS011;10517;50.742;4.224;2023-02-01T00:22:15;13.73;;;4.70;;
20711;SDS011;10517;50.742;4.224;2023-02-01T00:24:41;17.13;;;4.43;;
20711;SDS011;10517;50.742;4.224;2023-02-01T00:27:06;19.53;;;4.93;;
20711;SDS011;10517;50.742;4.224;2023-02-01T00:29:32;19.07;;;5.57;;
20711;SDS011;10517;50.742;4.224;2023-02-01T00:31:58;10.57;;;4.17;;
20711;SDS011;10517;50.742;4.224;2023-02-01T00:34:23;8.40;;;4.47;;
20711;SDS011;10517;50.742;4.224;2023-02-01T00:36:49;13.43;;;4.47;;
20711;SDS011;10517;50.742;4.224;2023-02-01T00:39:15;12.73;;;3.70;;
20711;SDS011;10517;50.742;4.224;2023-02-01T00:41:41;32.57;;;5.57;;
20711;SDS011;10517;50.742;4.224;2023-02-01T00:44:07;17.70;;;4.20;;
20711;SDS011;10517;50.742;4.224;2023-02-01T00:46:33;10.70;;;4.10;;
20711;SDS011;10517;50.742;4.224;2023-02-01T00:48:59;13.13;;;3.60;;
20711;SDS011;10517;50.742;4.224;2023-02-01T00:51:26;9.93;;;3.27;;
20711;SDS011;10517;50.742;4.224;2023-02-01T00:53:52;21.63;;;3.93;;
20711;SDS011;10517;50.742;4.224;2023-02-01T00:56:18;19.47;;;3.67;;
20711;SDS011;10517;50.742;4.224;2023-02-01T00:58:44;17.03;;;3.40;;
20711;SDS011;10517;50.742;4.224;2023-02-01T01:01:10;9.73;;;3.17;;
20711;SDS011;10517;50.742;4.224;2023-02-01T01:03:48;19.23;;;3.17;;
20711;SDS011;10517;50.742;4.224;2023-02-01T01:06:16;19.63;;;3.33;;
20711;SDS011;10517;50.742;4.224;2023-02-01T01:08:44;14.60;;;3.10;;
20711;SDS011;10517;50.742;4.224;2023-02-01T01:13:40;19.73;;;2.63;;
20711;SDS011;10517;50.742;4.224;2023-02-01T01:16:06;19.27;;;4.23;;
20711;SDS011;10517;50.742;4.224;2023-02-01T01:18:34;7.23;;;2.00;;
20711;SDS011;10517;50.742;4.224;2023-02-01T01:21:00;13.47;;;2.73;;
20711;SDS011;10517;50.742;4.224;2023-02-01T01:23:26;10.83;;;2.43;;
20711;SDS011;10517;50.742;4.224;2023-02-01T01:25:53;10.60;;;2.77;;
20711;SDS011;10517;50.742;4.224;2023-02-01T01:28:18;11.80;;;2.33;;
20711;SDS011;10517;50.742;4.224;2023-02-01T01:30:44;15.33;;;2.53;;
20711;SDS011;10517;50.742;4.224;2023-02-01T01:33:10;9.97;;;1.97;;
20711;SDS011;10517;50.742;4.224;2023-02-01T01:35:35;12.23;;;1.83;;
20711;SDS011;10517;50.742;4.224;2023-02-01T01:38:01;10.73;;;2.33;;
20711;SDS011;10517;50.742;4.224;2023-02-01T01:40:28;10.13;;;2.03;;
20711;SDS011;10517;50.742;4.224;2023-02-01T01:42:54;6.97;;;2.17;;
20711;SDS011;10517;50.742;4.224;2023-02-01T01:45:23;13.20;;;2.40;;
20711;SDS011;10517;50.742;4.224;2023-02-01T01:47:57;11.47;;;2.63;;
20711;SDS011;10517;50.742;4.224;2023-02-01T01:50:27;8.90;;;1.90;;
20711;SDS011;10517;50.742;4.224;2023-02-01T01:52:57;13.50;;;2.47;;
20711;SDS011;10517;50.742;4.224;2023-02-01T01:55:26;10.60;;;1.80;;
20711;SDS011;10517;50.742;4.224;2023-02-01T01:57:57;9.20;;;2.30;;
20711;SDS011;10517;50.742;4.224;2023-02-01T02:00:26;18.90;;;2.47;;
20711;SDS011;10517;50.742;4.224;2023-02-01T02:02:53;18.43;;;3.37;;
20711;SDS011;10517;50.742;4.224;2023-02-01T02:05:36;8.53;;;1.53;;
20711;SDS011;10517;50.742;4.224;2023-02-01T02:08:02;15.93;;;3.17;;
20711;SDS011;10517;50.742;4.224;2023-02-01T02:10:28;12.37;;;3.00;;
20711;SDS011;10517;50.742;4.224;2023-02-01T02:13:13;15.97;;;2.20;;
20711;SDS011;10517;50.742;4.224;2023-02-01T02:15:41;5.30;;;2.03;;
20711;SDS011;10517;50.742;4.224;2023-02-01T02:18:15;5.73;;;2.10;;
20711;SDS011;10517;50.742;4.224;2023-02-01T02:23:59;6.40;;;2.03;;
20711;SDS011;10517;50.742;4.224;2023-02-01T02:32:08;13.47;;;2.67;;
20711;SDS011;10517;50.742;4.224;2023-02-01T02:37:41;10.37;;;2.37;;
20711;SDS011;10517;50.742;4.224;2023-02-01T02:40:38;13.33;;;2.40;;
20711;SDS011;10517;50.742;4.224;2023-02-01T02:46:07;7.73;;;2.20;;
20711;SDS011;10517;50.742;4.224;2023-02-01T02:51:45;12.73;;;2.03;;
20711;SDS011;10517;50.742;4.224;2023-02-01T02:54:35;19.27;;;2.07;;
20711;SDS011;10517;50.742;4.224;2023-02-01T02:57:27;14.43;;;1.63;;
20711;SDS011;10517;50.742;4.224;2023-02-01T03:00:14;13.63;;;2.00;;
20711;SDS011;10517;50.742;4.224;2023-02-01T03:03:02;14.50;;;2.37;;
20711;SDS011;10517;50.742;4.224;2023-02-01T03:05:47;13.37;;;2.37;;
20711;SDS011;10517;50.742;4.224;2023-02-01T03:08:24;10.57;;;1.73;;
20711;SDS011;10517;50.742;4.224;2023-02-01T03:11:00;8.93;;;1.57;;
20711;SDS011;10517;50.742;4.224;2023-02-01T03:16:47;11.97;;;2.07;;
20711;SDS011;10517;50.742;4.224;2023-02-01T03:19:27;13.60;;;2.00;;
20711;SDS011;10517;50.742;4.224;2023-02-01T03:24:31;6.87;;;2.20;;
20711;SDS011;10517;50.742;4.224;2023-02-01T03:27:05;6.83;;;1.80;;
20711;SDS011;10517;50.742;4.224;2023-02-01T03:29:33;17.57;;;2.97;;
20711;SDS011;10517;50.742;4.224;2023-02-01T03:32:14;8.70;;;1.83;;
20711;SDS011;10517;50.742;4.224;2023-02-01T03:34:40;12.57;;;2.07;;
20711;SDS011;10517;50.742;4.224;2023-02-01T03:37:09;10.37;;;1.37;;
20711;SDS011;10517;50.742;4.224;2023-02-01T03:42:22;7.97;;;1.70;;
20711;SDS011;10517;50.742;4.224;2023-02-01T03:47:37;8.60;;;1.47;;
20711;SDS011;10517;50.742;4.224;2023-02-01T03:50:11;11.07;;;2.10;;
20711;SDS011;10517;50.742;4.224;2023-02-01T03:55:10;9.93;;;1.93;;
20711;SDS011;10517;50.742;4.224;2023-02-01T03:57:41;4.00;;;1.43;;
20711;SDS011;10517;50.742;4.224;2023-02-01T04:02:52;13.87;;;1.90;;
20711;SDS011;10517;50.742;4.224;2023-02-01T04:05:18;4.87;;;1.43;;
20711;SDS011;10517;50.742;4.224;2023-02-01T04:07:45;5.30;;;1.43;;
20711;SDS011;10517;50.742;4.224;2023-02-01T04:10:10;8.33;;;1.50;;
20711;SDS011;10517;50.742;4.224;2023-02-01T04:12:37;9.43;;;1.10;;
20711;SDS011;10517;50.742;4.224;2023-02-01T04:15:03;14.33;;;1.83;;
20711;SDS011;10517;50.742;4.224;2023-02-01T04:17:29;7.57;;;1.40;;
20711;SDS011;10517;50.742;4.224;2023-02-01T04:19:55;10.77;;;1.80;;
20711;SDS011;10517;50.742;4.224;2023-02-01T04:22:20;11.60;;;2.60;;
20711;SDS011;10517;50.742;4.224;2023-02-01T04:24:46;7.87;;;1.43;;
20711;SDS011;10517;50.742;4.224;2023-02-01T04:27:11;9.63;;;1.83;;
20711;SDS011;10517;50.742;4.224;2023-02-01T04:29:37;9.93;;;1.60;;
20711;SDS011;10517;50.742;4.224;2023-02-01T04:32:04;4.87;;;1.20;;
20711;SDS011;10517;50.742;4.224;2023-02-01T04:34:29;16.10;;;1.80;;
20711;SDS011;10517;50.742;4.224;2023-02-01T04:36:55;13.00;;;2.07;;
20711;SDS011;10517;50.742;4.224;2023-02-01T04:39:21;15.50;;;1.63;;
20711;SDS011;10517;50.742;4.224;2023-02-01T04:41:46;9.50;;;1.57;;
20711;SDS011;10517;50.742;4.224;2023-02-01T04:44:13;6.87;;;1.20;;
20711;SDS011;10517;50.742;4.224;2023-02-01T04:46:40;15.03;;;1.87;;
20711;SDS011;10517;50.742;4.224;2023-02-01T04:49:08;6.57;;;1.37;;
20711;SDS011;10517;50.742;4.224;2023-02-01T04:51:34;8.27;;;1.27;;
20711;SDS011;10517;50.742;4.224;2023-02-01T04:53:59;8.37;;;0.93;;
20711;SDS011;10517;50.742;4.224;2023-02-01T04:56:25;8.23;;;2.73;;
20711;SDS011;10517;50.742;4.224;2023-02-01T04:58:50;12.17;;;1.77;;
20711;SDS011;10517;50.742;4.224;2023-02-01T05:01:16;3.20;;;1.63;;
20711;SDS011;10517;50.742;4.224;2023-02-01T05:03:42;9.17;;;1.60;;
20711;SDS011;10517;50.742;4.224;2023-02-01T05:06:07;6.77;;;1.20;;
20711;SDS011;10517;50.742;4.224;2023-02-01T05:08:33;13.00;;;1.93;;
20711;SDS011;10517;50.742;4.224;2023-02-01T05:10:59;12.33;;;1.40;;
20711;SDS011;10517;50.742;4.224;2023-02-01T05:13:27;14.87;;;2.30;;
20711;SDS011;10517;50.742;4.224;2023-02-01T05:16:11;7.70;;;1.20;;
20711;SDS011;10517;50.742;4.224;2023-02-01T05:18:37;10.63;;;2.57;;
20711;SDS011;10517;50.742;4.224;2023-02-01T05:21:02;10.67;;;1.60;;
20711;SDS011;10517;50.742;4.224;2023-02-01T05:23:28;14.63;;;1.97;;
20711;SDS011;10517;50.742;4.224;2023-02-01T05:25:57;5.70;;;1.33;;
20711;SDS011;10517;50.742;4.224;2023-02-01T05:28:24;23.27;;;2.33;;
20711;SDS011;10517;50.742;4.224;2023-02-01T05:30:50;9.80;;;1.63;;
20711;SDS011;10517;50.742;4.224;2023-02-01T05:33:15;5.93;;;1.20;;
20711;SDS011;10517;50.742;4.224;2023-02-01T05:35:41;6.23;;;1.47;;
20711;SDS011;10517;50.742;4.224;2023-02-01T05:38:07;9.33;;;2.40;;
20711;SDS011;10517;50.742;4.224;2023-02-01T05:40:32;8.27;;;2.10;;
20711;SDS011;10517;50.742;4.224;2023-02-01T05:42:58;7.47;;;1.57;;
20711;SDS011;10517;50.742;4.224;2023-02-01T05:45:24;11.17;;;1.83;;
20711;SDS011;10517;50.742;4.224;2023-02-01T05:47:49;3.90;;;1.33;;
20711;SDS011;10517;50.742;4.224;2023-02-01T05:50:15;15.03;;;1.90;;
20711;SDS011;10517;50.742;4.224;2023-02-01T05:52:41;11.20;;;1.23;;
20711;SDS011;10517;50.742;4.224;2023-02-01T05:55:07;9.73;;;1.77;;
20711;SDS011;10517;50.742;4.224;2023-02-01T05:57:33;11.27;;;1.83;;
20711;SDS011;10517;50.742;4.224;2023-02-01T05:59:58;8.93;;;1.13;;
20711;SDS011;10517;50.742;4.224;2023-02-01T06:02:24;10.13;;;1.73;;
20711;SDS011;10517;50.742;4.224;2023-02-01T06:04:50;8.53;;;1.60;;
20711;SDS011;10517;50.742;4.224;2023-02-01T06:07:16;6.07;;;1.57;;
20711;SDS011;10517;50.742;4.224;2023-02-01T06:09:41;15.27;;;1.50;;
20711;SDS011;10517;50.742;4.224;2023-02-01T06:12:07;7.10;;;2.03;;
20711;SDS011;10517;50.742;4.224;2023-02-01T06:14:33;4.93;;;1.47;;
20711;SDS011;10517;50.742;4.224;2023-02-01T06:16:58;6.90;;;2.10;;
20711;SDS011;10517;50.742;4.224;2023-02-01T06:19:24;6.87;;;1.77;;
20711;SDS011;10517;50.742;4.224;2023-02-01T06:21:49;14.37;;;2.17;;
20711;SDS011;10517;50.742;4.224;2023-02-01T06:24:15;18.50;;;1.80;;
20711;SDS011;10517;50.742;4.224;2023-02-01T06:26:41;8.63;;;1.43;;
20711;SDS011;10517;50.742;4.224;2023-02-01T06:29:07;9.73;;;1.57;;
20711;SDS011;10517;50.742;4.224;2023-02-01T06:31:34;7.20;;;1.27;;
20711;SDS011;10517;50.742;4.224;2023-02-01T06:34:00;11.17;;;2.47;;
20711;SDS011;10517;50.742;4.224;2023-02-01T06:36:25;7.67;;;2.27;;
20711;SDS011;10517;50.742;4.224;2023-02-01T06:38:51;20.53;;;2.27;;
20711;SDS011;10517;50.742;4.224;2023-02-01T06:41:17;10.23;;;2.30;;
20711;SDS011;10517;50.742;4.224;2023-02-01T06:43:43;10.30;;;1.27;;
20711;SDS011;10517;50.742;4.224;2023-02-01T06:46:13;4.77;;;1.57;;
20711;SDS011;10517;50.742;4.224;2023-02-01T06:48:39;13.20;;;2.07;;
20711;SDS011;10517;50.742;4.224;2023-02-01T06:51:05;7.43;;;1.60;;
20711;SDS011;10517;50.742;4.224;2023-02-01T06:53:40;13.40;;;1.47;;
20711;SDS011;10517;50.742;4.224;2023-02-01T06:56:06;8.80;;;2.27;;
20711;SDS011;10517;50.742;4.224;2023-02-01T06:58:33;11.47;;;1.37;;
20711;SDS011;10517;50.742;4.224;2023-02-01T07:01:04;9.47;;;1.67;;
20711;SDS011;10517;50.742;4.224;2023-02-01T07:03:30;7.50;;;1.53;;
20711;SDS011;10517;50.742;4.224;2023-02-01T07:05:56;7.80;;;1.30;;
20711;SDS011;10517;50.742;4.224;2023-02-01T07:08:28;7.47;;;1.90;;
20711;SDS011;10517;50.742;4.224;2023-02-01T07:10:54;20.53;;;2.00;;
20711;SDS011;10517;50.742;4.224;2023-02-01T07:13:20;14.70;;;1.33;;
20711;SDS011;10517;50.742;4.224;2023-02-01T07:15:46;6.87;;;2.73;;
20711;SDS011;10517;50.742;4.224;2023-02-01T07:18:12;16.13;;;3.17;;
20711;SDS011;10517;50.742;4.224;2023-02-01T07:20:39;9.70;;;1.93;;
20711;SDS011;10517;50.742;4.224;2023-02-01T07:23:05;11.73;;;2.07;;
20711;SDS011;10517;50.742;4.224;2023-02-01T07:25:31;12.87;;;1.90;;
20711;SDS011;10517;50.742;4.224;2023-02-01T07:27:57;13.60;;;1.80;;
20711;SDS011;10517;50.742;4.224;2023-02-01T07:30:22;11.07;;;1.80;;
20711;SDS011;10517;50.742;4.224;2023-02-01T07:32:48;11.43;;;1.77;;
20711;SDS011;10517;50.742;4.224;2023-02-01T07:35:14;11.83;;;1.57;;
20711;SDS011;10517;50.742;4.224;2023-02-01T07:37:40;3.07;;;1.20;;
20711;SDS011;10517;50.742;4.224;2023-02-01T07:40:05;10.33;;;1.63;;
20711;SDS011;10517;50.742;4.224;2023-02-01T07:42:31;14.47;;;1.93;;
20711;SDS011;10517;50.742;4.224;2023-02-01T07:44:57;13.07;;;1.60;;
20711;SDS011;10517;50.742;4.224;2023-02-01T07:47:23;12.87;;;1.40;;
20711;SDS011;10517;50.742;4.224;2023-02-01T07:49:48;10.80;;;1.23;;
20711;SDS011;10517;50.742;4.224;2023-02-01T07:52:14;13.83;;;2.73;;
20711;SDS011;10517;50.742;4.224;2023-02-01T07:54:42;8.53;;;2.30;;
20711;SDS011;10517;50.742;4.224;2023-02-01T07:57:08;10.63;;;1.90;;
20711;SDS011;10517;50.742;4.224;2023-02-01T07:59:36;6.73;;;2.40;;
20711;SDS011;10517;50.742;4.224;2023-02-01T08:02:21;10.53;;;1.70;;
20711;SDS011;10517;50.742;4.224;2023-02-01T08:04:47;17.47;;;2.50;;
20711;SDS011;10517;50.742;4.224;2023-02-01T08:07:13;9.37;;;2.53;;
20711;SDS011;10517;50.742;4.224;2023-02-01T08:09:38;8.40;;;2.37;;
20711;SDS011;10517;50.742;4.224;2023-02-01T08:12:04;16.13;;;2.27;;
20711;SDS011;10517;50.742;4.224;2023-02-01T08:14:30;8.70;;;1.70;;
20711;SDS011;10517;50.742;4.224;2023-02-01T08:16:55;8.17;;;2.20;;
20711;SDS011;10517;50.742;4.224;2023-02-01T08:19:21;9.10;;;1.93;;
20711;SDS011;10517;50.742;4.224;2023-02-01T08:21:46;17.90;;;2.30;;
20711;SDS011;10517;50.742;4.224;2023-02-01T08:24:13;12.00;;;2.63;;
20711;SDS011;10517;50.742;4.224;2023-02-01T08:26:39;12.70;;;1.97;;
20711;SDS011;10517;50.742;4.224;2023-02-01T08:29:05;10.27;;;1.93;;
20711;SDS011;10517;50.742;4.224;2023-02-01T08:31:33;11.97;;;1.33;;
20711;SDS011;10517;50.742;4.224;2023-02-01T08:34:01;8.77;;;1.57;;
20711;SDS011;10517;50.742;4.224;2023-02-01T08:36:29;10.90;;;1.80;;
20711;SDS011;10517;50.742;4.224;2023-02-01T08:38:56;13.23;;;2.77;;
20711;SDS011;10517;50.742;4.224;2023-02-01T08:41:23;9.90;;;2.67;;
20711;SDS011;10517;50.742;4.224;2023-02-01T08:43:51;4.87;;;1.53;;
20711;SDS011;10517;50.742;4.224;2023-02-01T08:46:19;9.27;;;2.00;;
20711;SDS011;10517;50.742;4.224;2023-02-01T08:48:45;6.87;;;1.10;;
20711;SDS011;10517;50.742;4.224;2023-02-01T08:51:12;15.63;;;2.90;;
20711;SDS011;10517;50.742;4.224;2023-02-01T08:53:40;11.73;;;1.90;;
20711;SDS011;10517;50.742;4.224;2023-02-01T08:56:06;11.70;;;2.10;;
20711;SDS011;10517;50.742;4.224;2023-02-01T08:58:32;8.93;;;1.70;;
20711;SDS011;10517;50.742;4.224;2023-02-01T09:01:31;11.60;;;2.17;;
20711;SDS011;10517;50.742;4.224;2023-02-01T09:03:50;12.50;;;2.23;;
20711;SDS011;10517;50.742;4.224;2023-02-01T09:06:15;11.00;;;2.17;;
20711;SDS011;10517;50.742;4.224;2023-02-01T09:08:41;6.97;;;1.47;;
20711;SDS011;10517;50.742;4.224;2023-02-01T09:11:09;12.03;;;4.40;;
20711;SDS011;10517;50.742;4.224;2023-02-01T09:13:37;16.33;;;2.13;;
20711;SDS011;10517;50.742;4.224;2023-02-01T09:16:03;8.10;;;1.90;;
20711;SDS011;10517;50.742;4.224;2023-02-01T09:18:29;12.90;;;2.10;;
20711;SDS011;10517;50.742;4.224;2023-02-01T09:20:55;12.60;;;1.87;;
20711;SDS011;10517;50.742;4.224;2023-02-01T09:23:20;14.13;;;1.87;;
20711;SDS011;10517;50.742;4.224;2023-02-01T09:25:47;17.30;;;2.30;;
20711;SDS011;10517;50.742;4.224;2023-02-01T09:28:16;12.43;;;1.27;;
20711;SDS011;10517;50.742;4.224;2023-02-01T09:30:42;16.90;;;1.63;;
20711;SDS011;10517;50.742;4.224;2023-02-01T09:33:07;16.83;;;1.70;;
20711;SDS011;10517;50.742;4.224;2023-02-01T09:35:33;8.10;;;2.50;;
20711;SDS011;10517;50.742;4.224;2023-02-01T09:37:58;8.97;;;2.33;;
20711;SDS011;10517;50.742;4.224;2023-02-01T09:40:24;15.73;;;2.20;;
20711;SDS011;10517;50.742;4.224;2023-02-01T09:48:35;15.40;;;3.63;;
20711;SDS011;10517;50.742;4.224;2023-02-01T09:51:04;9.97;;;1.50;;
20711;SDS011;10517;50.742;4.224;2023-02-01T09:53:37;9.73;;;1.43;;
20711;SDS011;10517;50.742;4.224;2023-02-01T09:56:10;9.87;;;2.93;;
20711;SDS011;10517;50.742;4.224;2023-02-01T09:58:47;9.13;;;2.03;;
20711;SDS011;10517;50.742;4.224;2023-02-01T10:01:24;7.83;;;1.30;;
20711;SDS011;10517;50.742;4.224;2023-02-01T10:03:53;9.70;;;1.50;;
20711;SDS011;10517;50.742;4.224;2023-02-01T10:06:34;8.93;;;1.27;;
20711;SDS011;10517;50.742;4.224;2023-02-01T10:22:02;10.03;;;1.63;;
20711;SDS011;10517;50.742;4.224;2023-02-01T10:26:59;8.13;;;1.30;;
20711;SDS011;10517;50.742;4.224;2023-02-01T10:29:48;13.83;;;1.47;;
20711;SDS011;10517;50.742;4.224;2023-02-01T10:32:20;12.77;;;1.57;;
20711;SDS011;10517;50.742;4.224;2023-02-01T10:35:08;6.50;;;1.60;;
20711;SDS011;10517;50.742;4.224;2023-02-01T10:37:43;10.43;;;1.77;;
20711;SDS011;10517;50.742;4.224;2023-02-01T10:40:15;9.07;;;1.30;;
20711;SDS011;10517;50.742;4.224;2023-02-01T10:42:46;6.00;;;1.00;;
20711;SDS011;10517;50.742;4.224;2023-02-01T10:45:15;9.07;;;1.80;;
20711;SDS011;10517;50.742;4.224;2023-02-01T10:47:45;11.57;;;1.93;;
20711;SDS011;10517;50.742;4.224;2023-02-01T10:50:19;6.33;;;1.90;;
20711;SDS011;10517;50.742;4.224;2023-02-01T10:55:38;11.73;;;1.70;;
20711;SDS011;10517;50.742;4.224;2023-02-01T10:58:14;2.70;;;1.10;;
20711;SDS011;10517;50.742;4.224;2023-02-01T11:00:46;11.83;;;1.60;;
20711;SDS011;10517;50.742;4.224;2023-02-01T11:03:19;10.17;;;2.10;;
20711;SDS011;10517;50.742;4.224;2023-02-01T11:05:52;8.47;;;1.83;;
20711;SDS011;10517;50.742;4.224;2023-02-01T11:08:20;10.30;;;1.60;;
20711;SDS011;10517;50.742;4.224;2023-02-01T11:10:46;10.93;;;2.27;;
20711;SDS011;10517;50.742;4.224;2023-02-01T11:13:16;3.73;;;1.23;;
20711;SDS011;10517;50.742;4.224;2023-02-01T11:15:43;10.13;;;2.30;;
20711;SDS011;10517;50.742;4.224;2023-02-01T11:18:17;4.63;;;0.80;;
20711;SDS011;10517;50.742;4.224;2023-02-01T11:20:45;12.33;;;0.90;;
20711;SDS011;10517;50.742;4.224;2023-02-01T11:23:18;7.40;;;1.70;;
20711;SDS011;10517;50.742;4.224;2023-02-01T11:28:19;9.47;;;0.90;;
20711;SDS011;10517;50.742;4.224;2023-02-01T11:30:48;11.10;;;1.20;;
20711;SDS011;10517;50.742;4.224;2023-02-01T11:33:17;10.33;;;1.30;;
20711;SDS011;10517;50.742;4.224;2023-02-01T11:35:45;12.93;;;2.00;;
20711;SDS011;10517;50.742;4.224;2023-02-01T11:38:31;5.57;;;1.37;;
20711;SDS011;10517;50.742;4.224;2023-02-01T11:41:40;2.37;;;0.57;;
20711;SDS011;10517;50.742;4.224;2023-02-01T11:43:51;4.10;;;0.80;;
20711;SDS011;10517;50.742;4.224;2023-02-01T11:46:19;6.50;;;1.67;;
20711;SDS011;10517;50.742;4.224;2023-02-01T11:48:50;10.90;;;1.13;;
20711;SDS011;10517;50.742;4.224;2023-02-01T12:05:55;7.13;;;1.00;;
20711;SDS011;10517;50.742;4.224;2023-02-01T12:08:30;4.70;;;0.83;;
20711;SDS011;10517;50.742;4.224;2023-02-01T12:19:42;9.53;;;0.97;;
20711;SDS011;10517;50.742;4.224;2023-02-01T12:22:29;7.53;;;0.70;;
20711;SDS011;10517;50.742;4.224;2023-02-01T12:28:04;10.80;;;0.73;;
20711;SDS011;10517;50.742;4.224;2023-02-01T12:30:55;4.00;;;1.73;;
20711;SDS011;10517;50.742;4.224;2023-02-01T12:36:41;7.27;;;3.10;;
20711;SDS011;10517;50.742;4.224;2023-02-01T12:40:02;3.77;;;0.77;;
20711;SDS011;10517;50.742;4.224;2023-02-01T12:50:18;3.03;;;1.00;;
20711;SDS011;10517;50.742;4.224;2023-02-01T12:52:48;4.63;;;1.17;;
20711;SDS011;10517;50.742;4.224;2023-02-01T12:55:27;7.73;;;2.57;;
20711;SDS011;10517;50.742;4.224;2023-02-01T12:58:17;6.97;;;1.17;;
20711;SDS011;10517;50.742;4.224;2023-02-01T13:00:47;1.17;;;0.60;;
20711;SDS011;10517;50.742;4.224;2023-02-01T13:06:12;6.43;;;1.27;;
20711;SDS011;10517;50.742;4.224;2023-02-01T13:11:39;3.97;;;1.10;;
20711;SDS011;10517;50.742;4.224;2023-02-01T13:17:11;8.60;;;1.43;;
20711;SDS011;10517;50.742;4.224;2023-02-01T13:19:48;3.73;;;1.67;;
20711;SDS011;10517;50.742;4.224;2023-02-01T13:22:17;2.83;;;0.67;;
20711;SDS011;10517;50.742;4.224;2023-02-01T13:24:54;4.60;;;1.00;;
20711;SDS011;10517;50.742;4.224;2023-02-01T13:27:29;4.50;;;0.70;;
20711;SDS011;10517;50.742;4.224;2023-02-01T13:29:58;5.83;;;0.53;;
20711;SDS011;10517;50.742;4.224;2023-02-01T13:35:32;8.67;;;1.07;;
20711;SDS011;10517;50.742;4.224;2023-02-01T13:44:05;7.20;;;1.05;;
20711;SDS011;10517;50.742;4.224;2023-02-01T13:46:38;8.10;;;1.15;;
20711;SDS011;10517;50.742;4.224;2023-02-01T13:49:13;9.32;;;1.23;;
20711;SDS011;10517;50.742;4.224;2023-02-01T13:51:49;3.65;;;0.95;;
20711;SDS011;10517;50.742;4.224;2023-02-01T13:54:29;7.90;;;0.85;;
20711;SDS011;10517;50.742;4.224;2023-02-01T13:56:55;5.10;;;1.02;;
20711;SDS011;10517;50.742;4.224;2023-02-01T14:05:00;4.22;;;1.40;;
20711;SDS011;10517;50.742;4.224;2023-02-01T14:07:26;2.97;;;0.90;;
20711;SDS011;10517;50.742;4.224;2023-02-01T14:09:52;6.20;;;0.95;;
20711;SDS011;10517;50.742;4.224;2023-02-01T14:15:17;8.75;;;0.90;;
20711;SDS011;10517;50.742;4.224;2023-02-01T14:17:50;6.93;;;1.70;;
20711;SDS011;10517;50.742;4.224;2023-02-01T14:23:18;10.45;;;1.35;;
20711;SDS011;10517;50.742;4.224;2023-02-01T14:25:46;8.85;;;1.23;;
20711;SDS011;10517;50.742;4.224;2023-02-01T14:28:24;17.88;;;2.03;;
20711;SDS011;10517;50.742;4.224;2023-02-01T14:30:53;4.20;;;1.05;;
20711;SDS011;10517;50.742;4.224;2023-02-01T14:33:22;7.05;;;1.33;;
20711;SDS011;10517;50.742;4.224;2023-02-01T14:36:03;14.77;;;1.75;;
20711;SDS011;10517;50.742;4.224;2023-02-01T14:38:32;7.72;;;1.27;;
20711;SDS011;10517;50.742;4.224;2023-02-01T14:44:36;4.88;;;1.00;;
20711;SDS011;10517;50.742;4.224;2023-02-01T14:49:58;6.30;;;1.88;;
20711;SDS011;10517;50.742;4.224;2023-02-01T14:52:31;9.45;;;1.20;;
20711;SDS011;10517;50.742;4.224;2023-02-01T14:55:01;8.98;;;1.25;;
20711;SDS011;10517;50.742;4.224;2023-02-01T14:57:30;3.00;;;0.70;;
20711;SDS011;10517;50.742;4.224;2023-02-01T15:00:06;4.68;;;1.02;;
20711;SDS011;10517;50.742;4.224;2023-02-01T15:02:53;2.60;;;0.83;;
20711;SDS011;10517;50.742;4.224;2023-02-01T15:05:25;9.83;;;1.27;;
20711;SDS011;10517;50.742;4.224;2023-02-01T15:07:56;8.37;;;1.27;;
20711;SDS011;10517;50.742;4.224;2023-02-01T15:10:25;6.93;;;0.87;;
20711;SDS011;10517;50.742;4.224;2023-02-01T15:12:51;8.57;;;1.30;;
20711;SDS011;10517;50.742;4.224;2023-02-01T15:15:18;3.10;;;0.63;;
20711;SDS011;10517;50.742;4.224;2023-02-01T15:17:55;5.90;;;0.70;;
20711;SDS011;10517;50.742;4.224;2023-02-01T15:20:26;8.17;;;1.40;;
20711;SDS011;10517;50.742;4.224;2023-02-01T15:22:57;5.23;;;0.87;;
20711;SDS011;10517;50.742;4.224;2023-02-01T15:25:28;8.13;;;1.43;;
20711;SDS011;10517;50.742;4.224;2023-02-01T15:27:56;15.73;;;1.83;;
20711;SDS011;10517;50.742;4.224;2023-02-01T15:30:26;10.33;;;1.60;;
20711;SDS011;10517;50.742;4.224;2023-02-01T15:33:04;10.50;;;1.40;;
20711;SDS011;10517;50.742;4.224;2023-02-01T15:35:36;9.17;;;1.73;;
20711;SDS011;10517;50.742;4.224;2023-02-01T15:40:55;8.17;;;1.17;;
20711;SDS011;10517;50.742;4.224;2023-02-01T15:46:32;2.73;;;0.93;;
20711;SDS011;10517;50.742;4.224;2023-02-01T15:49:01;5.93;;;1.20;;
20711;SDS011;10517;50.742;4.224;2023-02-01T15:51:28;8.57;;;1.30;;
20711;SDS011;10517;50.742;4.224;2023-02-01T15:53:58;6.20;;;0.87;;
20711;SDS011;10517;50.742;4.224;2023-02-01T15:56:29;12.40;;;1.57;;
20711;SDS011;10517;50.742;4.224;2023-02-01T15:59:00;9.20;;;1.63;;
20711;SDS011;10517;50.742;4.224;2023-02-01T16:01:28;6.00;;;1.17;;
20711;SDS011;10517;50.742;4.224;2023-02-01T16:04:02;8.67;;;1.83;;
20711;SDS011;10517;50.742;4.224;2023-02-01T16:06:51;4.97;;;1.27;;
20711;SDS011;10517;50.742;4.224;2023-02-01T16:09:20;11.27;;;1.47;;
20711;SDS011;10517;50.742;4.224;2023-02-01T16:11:59;3.40;;;0.83;;
20711;SDS011;10517;50.742;4.224;2023-02-01T16:14:25;9.00;;;1.43;;
20711;SDS011;10517;50.742;4.224;2023-02-01T16:16:53;11.43;;;1.67;;
20711;SDS011;10517;50.742;4.224;2023-02-01T16:19:20;7.23;;;1.00;;
20711;SDS011;10517;50.742;4.224;2023-02-01T16:21:46;8.67;;;1.70;;
20711;SDS011;10517;50.742;4.224;2023-02-01T16:24:11;4.60;;;1.47;;
20711;SDS011;10517;50.742;4.224;2023-02-01T16:26:37;9.53;;;1.97;;
20711;SDS011;10517;50.742;4.224;2023-02-01T16:29:04;13.77;;;3.30;;
20711;SDS011;10517;50.742;4.224;2023-02-01T16:31:32;11.60;;;1.43;;
20711;SDS011;10517;50.742;4.224;2023-02-01T16:34:03;9.33;;;2.13;;
20711;SDS011;10517;50.742;4.224;2023-02-01T16:36:30;7.87;;;1.13;;
20711;SDS011;10517;50.742;4.224;2023-02-01T16:38:56;10.80;;;1.87;;
20711;SDS011;10517;50.742;4.224;2023-02-01T16:41:23;13.70;;;3.13;;
20711;SDS011;10517;50.742;4.224;2023-02-01T16:43:50;15.87;;;2.40;;
20711;SDS011;10517;50.742;4.224;2023-02-01T16:46:18;6.67;;;1.40;;
20711;SDS011;10517;50.742;4.224;2023-02-01T16:48:56;13.77;;;2.30;;
20711;SDS011;10517;50.742;4.224;2023-02-01T16:51:24;8.80;;;0.87;;
20711;SDS011;10517;50.742;4.224;2023-02-01T16:53:53;10.07;;;1.63;;
20711;SDS011;10517;50.742;4.224;2023-02-01T16:56:22;17.80;;;1.90;;
20711;SDS011;10517;50.742;4.224;2023-02-01T16:58:54;7.27;;;1.17;;
20711;SDS011;10517;50.742;4.224;2023-02-01T17:01:20;10.87;;;1.30;;
20711;SDS011;10517;50.742;4.224;2023-02-01T17:03:46;7.13;;;2.03;;
20711;SDS011;10517;50.742;4.224;2023-02-01T17:06:16;4.60;;;1.20;;
20711;SDS011;10517;50.742;4.224;2023-02-01T17:08:45;3.33;;;0.87;;
20711;SDS011;10517;50.742;4.224;2023-02-01T17:11:14;8.93;;;1.63;;
20711;SDS011;10517;50.742;4.224;2023-02-01T17:13:40;11.57;;;1.67;;
20711;SDS011;10517;50.742;4.224;2023-02-01T17:18:44;4.20;;;1.50;;